createdAt,value
2022-11-05T00:00:32.969Z,10.20
2022-11-05T00:03:18.874Z,10.10
2022-11-05T00:06:06.798Z,10.00
2022-11-05T00:08:52.811Z,10.00
2022-11-05T00:11:39.869Z,9.90
2022-11-05T00:14:25.571Z,9.90
2022-11-05T00:16:52.564Z,9.80
2022-11-05T00:19:19.824Z,9.90
2022-11-05T00:22:05.671Z,9.80
2022-11-05T00:24:51.261Z,9.80
2022-11-05T00:27:18.774Z,9.70
2022-11-05T00:29:45.829Z,9.70
2022-11-05T00:32:13.347Z,9.80
2022-11-05T00:34:40.456Z,9.80
2022-11-05T00:37:07.766Z,9.70
2022-11-05T00:39:34.849Z,9.70
2022-11-05T00:42:20.339Z,9.70
2022-11-05T00:45:08.208Z,9.70
2022-11-05T00:47:53.824Z,9.70
2022-11-05T00:50:22.397Z,9.70
2022-11-05T00:52:58.264Z,9.60
2022-11-05T00:55:42.758Z,9.70
2022-11-05T00:58:16.021Z,9.60
2022-11-05T01:00:50.166Z,9.60
2022-11-05T01:03:19.870Z,9.60
2022-11-05T01:05:50.474Z,9.60
2022-11-05T01:08:20.614Z,9.60
2022-11-05T01:10:53.924Z,9.60
2022-11-05T01:13:26.145Z,9.60
2022-11-05T01:15:53.271Z,9.60
2022-11-05T01:18:21.549Z,9.60
2022-11-05T01:20:49.412Z,9.60
2022-11-05T01:23:17.158Z,9.60
2022-11-05T01:25:44.389Z,9.60
2022-11-05T01:28:11.751Z,9.60
2022-11-05T01:30:39.212Z,9.60
2022-11-05T01:33:09.555Z,9.70
2022-11-05T01:35:36.956Z,9.70
2022-11-05T01:38:04.156Z,9.70
2022-11-05T01:40:31.206Z,9.70
2022-11-05T01:42:58.652Z,9.70
2022-11-05T01:45:27.890Z,9.70
2022-11-05T01:48:07.670Z,9.80
2022-11-05T01:50:41.403Z,9.80
2022-11-05T01:53:27.110Z,9.80
2022-11-05T01:56:07.586Z,9.80
2022-11-05T01:58:40.408Z,9.90
2022-11-05T02:01:07.504Z,9.90
2022-11-05T02:03:34.992Z,9.90
2022-11-05T02:06:02.953Z,9.90
2022-11-05T02:08:59.991Z,9.90
2022-11-05T02:11:27.373Z,10.00
2022-11-05T02:13:55.242Z,9.90
2022-11-05T02:16:43.598Z,9.90
2022-11-05T02:19:41.169Z,10.00
2022-11-05T02:22:34.978Z,9.90
2022-11-05T02:25:34.984Z,9.90
2022-11-05T02:28:21.007Z,9.90
2022-11-05T02:30:57.294Z,9.80
2022-11-05T02:33:57.905Z,9.80
2022-11-05T02:36:40.783Z,9.80
2022-11-05T02:39:32.079Z,9.80
2022-11-05T02:42:07.861Z,9.80
2022-11-05T02:44:47.544Z,9.80
2022-11-05T02:47:20.432Z,9.70
2022-11-05T02:50:02.504Z,9.70
2022-11-05T02:52:43.270Z,9.70
2022-11-05T02:55:24.372Z,9.70
2022-11-05T02:57:51.720Z,9.60
2022-11-05T03:00:55.222Z,9.60
2022-11-05T03:03:27.484Z,9.60
2022-11-05T03:06:06.090Z,9.60
2022-11-05T03:08:57.123Z,9.60
2022-11-05T03:11:28.669Z,9.50
2022-11-05T03:14:02.715Z,9.50
2022-11-05T03:17:05.162Z,9.50
2022-11-05T03:20:21.805Z,9.40
2022-11-05T03:23:14.672Z,9.40
2022-11-05T03:25:53.860Z,9.40
2022-11-05T03:28:24.503Z,9.30
2022-11-05T03:30:54.895Z,9.30
2022-11-05T03:33:27.636Z,9.30
2022-11-05T03:35:57.566Z,9.20
2022-11-05T03:38:31.153Z,9.20
2022-11-05T03:41:02.779Z,9.20
2022-11-05T03:43:36.033Z,9.20
2022-11-05T03:46:09.755Z,9.20
2022-11-05T03:48:49.027Z,9.20
2022-11-05T03:51:23.676Z,9.10
2022-11-05T03:53:56.383Z,9.10
2022-11-05T03:56:23.627Z,9.10
2022-11-05T03:58:56.080Z,9.00
2022-11-05T04:01:25.811Z,9.00
2022-11-05T04:03:53.381Z,9.10
2022-11-05T04:06:39.423Z,9.00
2022-11-05T04:09:25.623Z,9.00
2022-11-05T04:12:11.586Z,9.00
2022-11-05T04:14:39.658Z,9.00
2022-11-05T04:17:06.616Z,8.90
2022-11-05T04:19:56.035Z,8.90
2022-11-05T04:22:43.252Z,8.90
2022-11-05T04:25:10.974Z,8.90
2022-11-05T04:27:38.158Z,8.80
2022-11-05T04:30:20.016Z,8.70
2022-11-05T04:33:11.348Z,8.70
2022-11-05T04:35:49.092Z,8.70
2022-11-05T04:38:19.965Z,8.60
2022-11-05T04:40:48.298Z,8.60
2022-11-05T04:43:18.550Z,8.70
2022-11-05T04:45:46.071Z,8.70
2022-11-05T04:48:13.408Z,8.60
2022-11-05T04:50:40.428Z,8.50
2022-11-05T04:53:08.145Z,8.50
2022-11-05T04:55:35.689Z,8.60
2022-11-05T04:58:03.008Z,8.50
2022-11-05T05:00:30.044Z,8.50
2022-11-05T05:02:57.251Z,8.50
2022-11-05T05:05:24.389Z,8.50
2022-11-05T05:07:51.403Z,8.50
2022-11-05T05:10:18.592Z,8.40
2022-11-05T05:12:45.737Z,8.50
2022-11-05T05:15:14.165Z,8.40
2022-11-05T05:17:41.299Z,8.40
2022-11-05T05:20:26.985Z,8.50
2022-11-05T05:22:55.233Z,8.40
2022-11-05T05:25:23.200Z,8.40
2022-11-05T05:27:50.389Z,8.40
2022-11-05T05:30:18.518Z,8.40
2022-11-05T05:32:45.724Z,8.30
2022-11-05T05:35:13.521Z,8.30
2022-11-05T05:37:40.650Z,8.30
2022-11-05T05:40:08.783Z,8.30
2022-11-05T05:42:41.757Z,8.30
2022-11-05T05:45:12.794Z,8.30
2022-11-05T05:47:39.819Z,8.30
2022-11-05T05:50:06.814Z,8.40
2022-11-05T05:52:34.140Z,8.20
2022-11-05T05:55:01.125Z,8.20
2022-11-05T05:57:28.257Z,8.20
2022-11-05T05:59:55.340Z,8.20
2022-11-05T06:02:23.171Z,8.20
2022-11-05T06:04:50.343Z,8.20
2022-11-05T06:07:17.355Z,8.20
2022-11-05T06:09:44.387Z,8.20
2022-11-05T06:12:11.489Z,8.20
2022-11-05T06:14:38.632Z,8.20
2022-11-05T06:17:07.326Z,8.30
2022-11-05T06:19:34.303Z,8.10
2022-11-05T06:22:01.440Z,8.10
2022-11-05T06:24:28.482Z,8.10
2022-11-05T06:26:55.753Z,8.10
2022-11-05T06:29:22.861Z,8.10
2022-11-05T06:31:49.885Z,8.10
2022-11-05T06:34:17.201Z,8.10
2022-11-05T06:36:44.158Z,8.10
2022-11-05T06:39:12.286Z,8.10
2022-11-05T06:42:03.950Z,8.00
2022-11-05T06:44:28.126Z,8.00
2022-11-05T06:46:55.030Z,8.00
2022-11-05T06:49:24.847Z,8.00
2022-11-05T06:51:52.781Z,8.00
2022-11-05T06:54:20.317Z,8.00
2022-11-05T06:56:47.523Z,8.00
2022-11-05T06:59:14.912Z,8.00
2022-11-05T07:01:42.172Z,8.00
2022-11-05T07:04:11.578Z,8.10
2022-11-05T07:06:38.832Z,8.10
2022-11-05T07:09:06.066Z,8.20
2022-11-05T07:11:33.170Z,8.20
2022-11-05T07:14:01.205Z,8.10
2022-11-05T07:16:28.377Z,8.10
2022-11-05T07:18:56.036Z,8.20
2022-11-05T07:21:24.425Z,8.20
2022-11-05T07:23:51.368Z,8.20
2022-11-05T07:26:18.356Z,8.30
2022-11-05T07:28:45.586Z,8.30
2022-11-05T07:31:12.569Z,8.40
2022-11-05T07:33:39.938Z,8.40
2022-11-05T07:36:07.130Z,8.40
2022-11-05T07:38:34.166Z,8.50
2022-11-05T07:41:01.040Z,8.40
2022-11-05T07:43:27.987Z,8.40
2022-11-05T07:45:55.248Z,8.50
2022-11-05T07:48:22.319Z,8.50
2022-11-05T07:50:52.997Z,8.60
2022-11-05T07:53:21.186Z,8.70
2022-11-05T07:55:48.289Z,8.70
2022-11-05T07:58:15.330Z,8.70
2022-11-05T08:00:42.920Z,8.80
2022-11-05T08:03:18.337Z,8.80
2022-11-05T08:05:48.168Z,8.90
2022-11-05T08:08:19.727Z,9.00
2022-11-05T08:10:48.239Z,9.10
2022-11-05T08:13:15.763Z,9.10
2022-11-05T08:15:43.554Z,9.10
2022-11-05T08:18:16.539Z,9.10
2022-11-05T08:20:45.598Z,9.20
2022-11-05T08:23:14.411Z,9.20
2022-11-05T08:25:42.112Z,9.30
2022-11-05T08:28:11.937Z,9.40
2022-11-05T08:30:38.877Z,9.50
2022-11-05T08:33:10.484Z,9.40
2022-11-05T08:35:38.908Z,9.40
2022-11-05T08:38:09.300Z,9.50
2022-11-05T08:40:37.707Z,9.60
2022-11-05T08:43:07.170Z,9.60
2022-11-05T08:45:38.205Z,9.60
2022-11-05T08:48:08.854Z,9.60
2022-11-05T08:50:37.348Z,9.70
2022-11-05T08:53:05.369Z,9.80
2022-11-05T08:55:32.743Z,9.90
2022-11-05T08:58:05.005Z,10.00
2022-11-05T09:00:34.016Z,10.20
2022-11-05T09:03:02.662Z,10.40
2022-11-05T09:05:32.207Z,10.50
2022-11-05T09:08:01.407Z,10.60
2022-11-05T09:10:29.183Z,10.80
2022-11-05T09:12:56.326Z,11.00
2022-11-05T09:15:24.658Z,11.00
2022-11-05T09:17:51.819Z,11.20
2022-11-05T09:20:19.652Z,11.30
2022-11-05T09:22:47.014Z,11.40
2022-11-05T09:25:15.926Z,11.40
2022-11-05T09:27:43.714Z,11.50
2022-11-05T09:30:12.649Z,11.50
2022-11-05T09:32:39.973Z,11.60
2022-11-05T09:35:08.258Z,11.60
2022-11-05T09:37:37.022Z,11.70
2022-11-05T09:40:05.013Z,11.60
2022-11-05T09:42:40.323Z,11.60
2022-11-05T09:45:35.327Z,11.70
2022-11-05T09:48:10.469Z,11.70
2022-11-05T09:50:42.542Z,11.70
2022-11-05T09:53:14.496Z,11.70
2022-11-05T09:55:48.298Z,11.70
2022-11-05T09:58:32.246Z,11.70
2022-11-05T10:00:59.988Z,11.70
2022-11-05T10:03:30.053Z,11.70
2022-11-05T10:06:08.170Z,11.70
2022-11-05T10:08:41.622Z,11.80
2022-11-05T10:11:18.351Z,11.80
2022-11-05T10:13:55.237Z,12.00
2022-11-05T10:16:25.286Z,12.10
2022-11-05T10:19:09.828Z,12.00
2022-11-05T10:22:04.964Z,12.10
2022-11-05T10:24:24.940Z,12.10
2022-11-05T10:26:53.877Z,12.10
2022-11-05T10:29:29.617Z,12.20
2022-11-05T10:31:58.539Z,12.30
2022-11-05T10:34:32.255Z,12.30
2022-11-05T10:36:59.407Z,12.50
2022-11-05T10:39:29.629Z,12.50
2022-11-05T10:42:08.796Z,12.50
2022-11-05T10:44:35.888Z,12.50
2022-11-05T10:47:06.921Z,12.60
2022-11-05T10:49:59.406Z,12.70
2022-11-05T10:52:29.526Z,12.80
2022-11-05T10:55:01.152Z,12.80
2022-11-05T10:57:49.513Z,12.80
2022-11-05T11:00:19.641Z,12.70
2022-11-05T11:03:01.230Z,12.70
2022-11-05T11:05:40.287Z,12.70
2022-11-05T11:08:13.366Z,12.70
2022-11-05T11:10:49.088Z,12.80
2022-11-05T11:13:21.558Z,12.80
2022-11-05T11:15:51.055Z,12.80
2022-11-05T11:18:34.562Z,12.90
2022-11-05T11:21:14.931Z,13.10
2022-11-05T11:23:48.236Z,13.20
2022-11-05T11:26:16.034Z,13.30
2022-11-05T11:28:59.989Z,13.40
2022-11-05T11:31:32.018Z,13.60
2022-11-05T11:34:04.621Z,13.60
2022-11-05T11:36:48.251Z,13.60
2022-11-05T11:39:19.575Z,13.70
2022-11-05T11:41:51.836Z,13.80
2022-11-05T11:44:20.952Z,13.90
2022-11-05T11:46:51.559Z,13.80
2022-11-05T11:49:44.496Z,13.70
2022-11-05T11:52:15.002Z,13.90
2022-11-05T11:54:42.691Z,14.00
2022-11-05T11:57:28.103Z,14.10
2022-11-05T12:00:12.349Z,14.10
2022-11-05T12:03:05.135Z,14.10
2022-11-05T12:05:41.615Z,14.00
2022-11-05T12:08:19.522Z,14.10
2022-11-05T12:11:23.780Z,14.10
2022-11-05T12:14:09.085Z,14.10
2022-11-05T12:16:57.128Z,14.10
2022-11-05T12:19:42.191Z,14.20
2022-11-05T12:22:41.764Z,14.20
2022-11-05T12:25:09.127Z,14.20
2022-11-05T12:28:06.176Z,14.20
2022-11-05T12:30:48.031Z,14.20
2022-11-05T12:33:15.755Z,14.20
2022-11-05T12:44:18.825Z,14.30
2022-11-05T12:47:13.281Z,14.40
2022-11-05T12:49:51.450Z,14.30
2022-11-05T12:52:47.118Z,14.20
2022-11-05T12:55:19.071Z,14.10
2022-11-05T12:57:52.057Z,14.20
2022-11-05T13:00:37.618Z,14.20
2022-11-05T13:03:25.906Z,14.20
2022-11-05T13:06:06.271Z,14.20
2022-11-05T13:08:48.537Z,14.10
2022-11-05T13:11:28.275Z,14.00
2022-11-05T13:14:09.676Z,14.10
2022-11-05T13:16:42.657Z,14.30
2022-11-05T13:19:16.011Z,14.10
2022-11-05T13:21:46.965Z,14.00
2022-11-05T13:24:24.741Z,14.00
2022-11-05T13:27:14.791Z,14.00
2022-11-05T13:29:52.664Z,14.20
2022-11-05T13:32:37.426Z,14.20
2022-11-05T13:35:08.619Z,14.30
2022-11-05T13:37:58.668Z,14.60
2022-11-05T13:40:50.505Z,14.90
2022-11-05T13:43:35.972Z,15.00
2022-11-05T13:46:46.871Z,15.00
2022-11-05T13:49:36.921Z,15.20
2022-11-05T13:52:14.626Z,15.40
2022-11-05T13:55:07.669Z,15.40
2022-11-05T13:57:49.699Z,15.30
2022-11-05T14:00:25.628Z,15.20
2022-11-05T14:02:52.572Z,15.00
2022-11-05T14:05:40.073Z,15.00
2022-11-05T14:08:18.768Z,14.90
2022-11-05T14:10:59.783Z,14.80
2022-11-05T14:13:40.050Z,14.70
2022-11-05T14:16:24.491Z,14.60
2022-11-05T14:27:21.242Z,14.40
2022-11-05T14:29:50.143Z,14.40
2022-11-05T14:32:19.824Z,14.40
2022-11-05T14:35:17.653Z,14.40
2022-11-05T14:37:59.078Z,14.40
2022-11-05T14:40:37.145Z,14.30
2022-11-05T14:43:15.221Z,14.30
2022-11-05T14:45:56.161Z,14.20
2022-11-05T14:48:25.933Z,14.20
2022-11-05T14:50:53.317Z,14.10
2022-11-05T14:53:34.510Z,14.20
2022-11-05T14:56:05.369Z,14.20
2022-11-05T14:58:35.775Z,14.20
2022-11-05T15:01:31.954Z,14.20
2022-11-05T15:04:17.099Z,14.20
2022-11-05T15:07:07.568Z,14.10
2022-11-05T15:09:49.582Z,14.10
2022-11-05T15:12:35.003Z,14.00
2022-11-05T15:15:24.000Z,14.00
2022-11-05T15:18:13.856Z,13.90
2022-11-05T15:20:45.614Z,13.90
2022-11-05T15:23:19.047Z,13.80
2022-11-05T15:26:08.352Z,13.80
2022-11-05T15:29:14.550Z,13.80
2022-11-05T15:31:45.338Z,13.70
2022-11-05T15:40:22.938Z,13.60
2022-11-05T15:43:17.497Z,13.80
2022-11-05T15:45:57.330Z,13.70
2022-11-05T15:48:24.376Z,13.70
2022-11-05T15:50:51.751Z,13.60
2022-11-05T15:56:20.295Z,13.50
2022-11-05T15:58:54.097Z,13.40
2022-11-05T16:01:31.021Z,13.30
2022-11-05T16:04:08.604Z,13.30
2022-11-05T16:06:40.127Z,13.30
2022-11-05T16:09:08.177Z,13.30
2022-11-05T16:11:35.131Z,13.20
2022-11-05T16:14:19.384Z,13.20
2022-11-05T16:16:47.024Z,13.20
2022-11-05T16:19:41.034Z,13.20
2022-11-05T16:22:08.948Z,13.30
2022-11-05T16:24:36.150Z,13.20
2022-11-05T16:27:03.972Z,13.10
2022-11-05T16:29:47.505Z,13.00
2022-11-05T16:32:25.433Z,13.00
2022-11-05T16:34:59.835Z,12.90
2022-11-05T16:37:37.093Z,12.90
2022-11-05T16:40:14.842Z,12.90
2022-11-05T16:42:42.373Z,12.90
2022-11-05T16:45:14.719Z,12.80
2022-11-05T16:47:43.269Z,12.80
2022-11-05T16:50:20.228Z,12.80
2022-11-05T16:52:47.792Z,12.70
2022-11-05T16:55:15.966Z,12.70
2022-11-05T16:57:46.053Z,12.50
2022-11-05T17:00:18.989Z,12.40
2022-11-05T17:02:46.756Z,12.40
2022-11-05T17:05:21.327Z,12.40
2022-11-05T17:07:48.449Z,12.40
2022-11-05T17:10:16.103Z,12.30
2022-11-05T17:12:43.678Z,12.30
2022-11-05T17:15:25.237Z,12.20
2022-11-05T17:17:53.940Z,12.30
2022-11-05T17:20:38.255Z,12.30
2022-11-05T17:23:09.006Z,12.30
2022-11-05T17:25:36.500Z,12.30
2022-11-05T17:28:04.549Z,12.30
2022-11-05T17:30:32.722Z,12.30
2022-11-05T17:32:59.929Z,12.20
2022-11-05T17:35:28.810Z,12.10
2022-11-05T17:37:55.909Z,12.30
2022-11-05T17:40:24.037Z,12.30
2022-11-05T17:42:52.021Z,12.40
2022-11-05T17:45:19.067Z,12.30
2022-11-05T17:47:46.290Z,12.20
2022-11-05T17:50:15.445Z,12.20
2022-11-05T17:52:43.092Z,12.20
2022-11-05T17:55:16.822Z,12.10
2022-11-05T17:57:49.506Z,12.10
2022-11-05T18:00:19.951Z,12.10
2022-11-05T18:02:49.623Z,12.10
2022-11-05T18:05:18.588Z,12.20
2022-11-05T18:07:47.084Z,12.20
2022-11-05T18:10:15.139Z,12.20
2022-11-05T18:12:42.582Z,12.10
2022-11-05T18:15:10.985Z,12.10
2022-11-05T18:17:38.237Z,12.10
2022-11-05T18:20:11.671Z,12.00
2022-11-05T18:22:42.268Z,12.00
2022-11-05T18:25:10.901Z,12.00
2022-11-05T18:27:38.123Z,12.00
2022-11-05T18:30:05.629Z,12.00
2022-11-05T18:32:32.833Z,12.00
2022-11-05T18:35:00.202Z,12.00
2022-11-05T18:37:27.383Z,12.00
2022-11-05T18:39:54.935Z,12.00
2022-11-05T18:51:56.393Z,12.10
2022-11-05T18:54:23.504Z,12.10
2022-11-05T18:56:50.893Z,12.00
2022-11-05T19:02:08.679Z,12.00
2022-11-05T19:04:36.786Z,11.90
2022-11-05T19:07:05.728Z,11.90
2022-11-05T19:09:37.983Z,12.00
2022-11-05T19:12:07.182Z,12.00
2022-11-05T19:14:36.939Z,12.00
2022-11-05T19:17:04.447Z,12.00
2022-11-05T19:19:31.659Z,12.00
2022-11-05T19:21:58.882Z,11.90
2022-11-05T19:24:25.976Z,12.00
2022-11-05T19:26:53.019Z,11.90
2022-11-05T19:29:20.125Z,12.00
2022-11-05T19:31:47.379Z,12.10
2022-11-05T19:34:15.100Z,12.10
2022-11-05T19:36:42.747Z,12.10
2022-11-05T19:39:13.052Z,12.10
2022-11-05T19:41:40.648Z,12.20
2022-11-05T19:44:08.117Z,12.20
2022-11-05T19:46:35.689Z,12.20
2022-11-05T19:49:03.329Z,12.30
2022-11-05T19:51:32.209Z,12.20
2022-11-05T19:54:01.914Z,12.20
2022-11-05T19:56:30.960Z,12.10
2022-11-05T19:58:59.267Z,12.20
2022-11-05T20:01:28.024Z,12.20
2022-11-05T20:03:57.176Z,12.20
2022-11-05T20:06:28.733Z,12.20
2022-11-05T20:09:20.564Z,12.20
2022-11-05T20:11:48.799Z,12.20
2022-11-05T20:14:16.414Z,12.20
2022-11-05T20:16:45.002Z,12.10
2022-11-05T20:19:15.216Z,12.10
2022-11-05T20:21:42.778Z,12.00
2022-11-05T20:24:12.622Z,12.00
2022-11-05T20:26:39.844Z,11.90
2022-11-05T20:29:07.161Z,11.90
2022-11-05T20:31:34.487Z,11.90
2022-11-05T20:34:01.619Z,12.00
2022-11-05T20:36:28.478Z,12.00
2022-11-05T20:39:02.304Z,12.00
2022-11-05T20:41:30.827Z,12.00
2022-11-05T20:43:57.846Z,11.90
2022-11-05T20:46:25.305Z,11.80
2022-11-05T20:48:53.603Z,11.80
2022-11-05T20:51:24.275Z,11.80
2022-11-05T20:53:56.272Z,11.70
2022-11-05T20:56:26.515Z,11.90
2022-11-05T20:58:58.845Z,11.80
2022-11-05T21:01:28.595Z,11.70
2022-11-05T21:03:56.741Z,11.70
2022-11-05T21:06:24.306Z,11.80
2022-11-05T21:08:52.297Z,11.70
2022-11-05T21:11:20.107Z,11.70
2022-11-05T21:13:49.080Z,11.70
2022-11-05T21:16:18.754Z,11.60
2022-11-05T21:18:47.703Z,11.60
2022-11-05T21:21:19.415Z,11.70
2022-11-05T21:23:47.177Z,11.60
2022-11-05T21:26:15.336Z,11.60
2022-11-05T21:28:42.597Z,11.60
2022-11-05T21:31:10.306Z,11.60
2022-11-05T21:33:38.456Z,11.70
2022-11-05T21:36:08.107Z,11.70
2022-11-05T21:38:35.467Z,11.70
2022-11-05T21:41:03.724Z,11.70
2022-11-05T21:43:31.684Z,11.60
2022-11-05T21:46:02.465Z,11.60
2022-11-05T21:48:30.168Z,11.60
2022-11-05T21:51:15.901Z,11.60
2022-11-05T21:54:03.201Z,11.60
2022-11-05T21:56:49.861Z,11.70
2022-11-05T21:59:39.206Z,11.90
2022-11-05T22:02:07.852Z,11.60
2022-11-05T22:04:37.531Z,11.70
2022-11-05T22:07:06.265Z,11.60
2022-11-05T22:09:33.648Z,11.50
2022-11-05T22:12:01.410Z,11.60
2022-11-05T22:14:29.322Z,11.50
2022-11-05T22:17:00.322Z,11.60
2022-11-05T22:19:27.577Z,11.50
2022-11-05T22:21:54.750Z,11.50
2022-11-05T22:24:22.594Z,11.50
2022-11-05T22:26:50.586Z,11.50
2022-11-05T22:29:18.088Z,11.50
2022-11-05T22:31:45.551Z,11.60
2022-11-05T22:34:13.588Z,11.60
2022-11-05T22:36:40.726Z,11.50
2022-11-05T22:39:08.395Z,11.60
2022-11-05T22:41:35.300Z,11.50
2022-11-05T22:44:03.719Z,11.60
2022-11-05T22:46:31.508Z,11.60
2022-11-05T22:49:00.188Z,11.70
2022-11-05T22:51:29.512Z,11.60
2022-11-05T22:53:57.318Z,11.60
2022-11-05T22:56:27.099Z,11.60
2022-11-05T22:58:54.673Z,11.40
2022-11-05T23:01:23.066Z,11.50
2022-11-05T23:03:52.396Z,11.40
2022-11-05T23:06:40.770Z,11.50
2022-11-05T23:09:33.978Z,11.50
2022-11-05T23:12:01.674Z,11.50
2022-11-05T23:14:29.143Z,11.50
2022-11-05T23:17:15.365Z,11.50
2022-11-05T23:20:01.248Z,11.50
2022-11-05T23:22:49.551Z,11.50
2022-11-05T23:25:19.787Z,11.50
2022-11-05T23:27:51.600Z,11.60
2022-11-05T23:30:21.017Z,11.50
2022-11-05T23:32:49.271Z,11.50
2022-11-05T23:35:16.765Z,11.50
2022-11-05T23:38:03.136Z,11.40
2022-11-05T23:40:51.981Z,11.40
2022-11-05T23:43:37.797Z,11.40
2022-11-05T23:46:23.574Z,11.30
2022-11-05T23:48:50.794Z,11.30
2022-11-05T23:51:17.762Z,11.30
2022-11-05T23:53:44.888Z,11.20
2022-11-05T23:56:14.232Z,11.20
2022-11-05T23:58:42.573Z,11.20
